createdAt,value
2024-01-04T00:09:12.109Z,85.41
2024-01-04T00:24:12.928Z,85.19
2024-01-04T00:39:13.076Z,81.73
2024-01-04T00:54:13.694Z,78.90
2024-01-04T01:09:14.775Z,76.54
2024-01-04T01:24:15.590Z,75.16
2024-01-04T01:39:16.235Z,74.43
2024-01-04T01:54:17.055Z,74.25
2024-01-04T02:09:17.719Z,73.56
2024-01-04T02:24:18.327Z,72.71
2024-01-04T02:39:18.981Z,71.71
2024-01-04T02:54:19.609Z,70.17
2024-01-04T03:09:20.566Z,70.33
2024-01-04T03:24:20.999Z,70.88
2024-01-04T03:39:21.735Z,70.55
2024-01-04T03:54:22.360Z,70.83
2024-01-04T04:09:22.993Z,72.48
2024-01-04T04:24:23.611Z,74.39
2024-01-04T04:39:24.468Z,74.00
2024-01-04T04:54:25.056Z,71.90
2024-01-04T05:09:25.785Z,71.79
2024-01-04T05:24:26.703Z,74.34
2024-01-04T05:39:27.441Z,74.45
2024-01-04T05:54:28.203Z,72.64
2024-01-04T06:09:29.063Z,73.07
2024-01-04T06:24:29.708Z,72.22
2024-01-04T06:39:30.279Z,72.55
2024-01-04T06:54:30.851Z,72.59
2024-01-04T07:09:31.455Z,72.62
2024-01-04T07:24:32.072Z,72.04
2024-01-04T07:39:32.898Z,72.45
2024-01-04T07:54:42.787Z,72.94
2024-01-04T08:09:38.140Z,72.53
2024-01-04T08:24:34.689Z,72.22
2024-01-04T08:39:35.302Z,72.17
2024-01-04T08:54:35.876Z,72.80
2024-01-04T09:09:36.491Z,71.29
2024-01-04T09:24:37.099Z,70.03
2024-01-04T09:39:37.525Z,69.98
2024-01-04T09:54:38.569Z,68.82
2024-01-04T10:09:39.384Z,67.47
2024-01-04T10:24:40.715Z,67.15
2024-01-04T10:39:40.714Z,67.01
2024-01-04T10:54:41.297Z,66.03
2024-01-04T11:09:41.886Z,66.04
2024-01-04T11:24:42.466Z,66.12
2024-01-04T11:39:43.290Z,65.04
2024-01-04T11:54:43.882Z,69.01
2024-01-04T12:09:44.620Z,70.55
2024-01-04T12:24:45.273Z,64.91
2024-01-04T12:39:45.866Z,64.24
2024-01-04T12:54:46.432Z,64.51
2024-01-04T13:09:47.254Z,65.82
2024-01-04T13:24:47.802Z,67.44
2024-01-04T13:39:48.437Z,65.33
2024-01-04T13:54:49.025Z,69.74
2024-01-04T14:09:49.674Z,67.69
2024-01-04T14:24:50.218Z,67.89
2024-01-04T14:39:50.982Z,68.41
2024-01-04T14:54:51.600Z,72.04
2024-01-04T15:09:52.115Z,74.86
2024-01-04T15:24:52.667Z,73.22
2024-01-04T15:39:53.644Z,69.84
2024-01-04T15:54:53.732Z,68.84
2024-01-04T16:09:54.344Z,76.15
2024-01-04T16:24:54.944Z,78.59
2024-01-04T16:39:55.561Z,77.66
2024-01-04T16:54:56.159Z,76.11
2024-01-04T17:09:56.935Z,73.94
2024-01-04T17:24:57.232Z,72.40
2024-01-04T17:39:57.349Z,73.26
2024-01-04T17:55:00.483Z,73.41
2024-01-04T18:09:58.497Z,74.02
2024-01-04T18:24:59.074Z,74.64
2024-01-04T18:39:59.913Z,75.50
2024-01-04T18:55:00.481Z,75.65
2024-01-04T19:10:01.107Z,75.99
2024-01-04T19:25:01.446Z,76.31
2024-01-04T19:40:02.224Z,76.87
2024-01-04T19:55:03.044Z,77.05
2024-01-04T20:10:03.683Z,77.14
2024-01-04T20:25:04.312Z,77.50
2024-01-04T20:40:04.972Z,77.27
2024-01-04T20:55:05.569Z,77.48
2024-01-04T21:10:06.251Z,77.95
2024-01-04T21:25:07.067Z,77.84
2024-01-04T21:40:07.737Z,77.70
2024-01-04T21:55:08.348Z,77.64
2024-01-04T22:10:18.672Z,77.66
2024-01-04T22:25:10.393Z,77.71
2024-01-04T22:40:10.132Z,77.57
2024-01-04T22:55:10.812Z,78.76
2024-01-04T23:10:11.542Z,80.70
2024-01-04T23:25:12.169Z,81.56
2024-01-04T23:40:12.805Z,82.35
2024-01-04T23:55:13.503Z,82.46
